createdAt,value
2019-04-05T00:00:30.798Z,73.30
2019-04-05T00:03:00.280Z,74.10
2019-04-05T00:05:29.765Z,73.30
2019-04-05T00:08:01.025Z,73.30
2019-04-05T00:10:31.753Z,73.40
2019-04-05T00:13:01.185Z,73.40
2019-04-05T00:15:30.662Z,73.40
2019-04-05T00:18:00.100Z,73.10
2019-04-05T00:20:29.565Z,73.60
2019-04-05T00:22:58.977Z,73.80
2019-04-05T00:25:28.551Z,74.10
2019-04-05T00:27:58.138Z,74.20
2019-04-05T00:30:27.581Z,73.90
2019-04-05T00:32:57.066Z,74.20
2019-04-05T00:35:26.519Z,74.30
2019-04-05T00:37:55.974Z,74.20
2019-04-05T00:40:25.435Z,74.20
2019-04-05T00:42:54.923Z,74.30
2019-04-05T00:45:28.549Z,74.70
2019-04-05T00:50:33.236Z,74.90
2019-04-05T00:53:02.792Z,75.10
2019-04-05T00:55:32.346Z,75.20
2019-04-05T00:58:01.778Z,75.40
2019-04-05T01:00:31.261Z,75.50
2019-04-05T01:03:00.711Z,75.50
2019-04-05T01:05:30.519Z,75.80
2019-04-05T01:07:59.947Z,75.80
2019-04-05T01:10:29.404Z,76.10
2019-04-05T01:12:59.627Z,75.70
2019-04-05T01:15:40.173Z,75.90
2019-04-05T01:18:00.174Z,76.10
2019-04-05T01:20:33.120Z,76.30
2019-04-05T01:23:03.217Z,76.60
2019-04-05T01:25:33.811Z,76.60
2019-04-05T01:28:03.367Z,76.70
2019-04-05T01:30:33.003Z,76.70
2019-04-05T01:33:02.528Z,76.90
2019-04-05T01:35:32.031Z,77.00
2019-04-05T01:38:02.666Z,76.90
2019-04-05T01:40:34.131Z,77.00
2019-04-05T01:43:03.594Z,77.00
2019-04-05T01:45:33.335Z,76.90
2019-04-05T01:48:02.791Z,76.60
2019-04-05T01:50:32.321Z,77.10
2019-04-05T01:53:01.848Z,77.20
2019-04-05T01:55:31.353Z,77.30
2019-04-05T01:58:00.802Z,77.30
2019-04-05T02:00:30.265Z,77.50
2019-04-05T02:02:59.770Z,77.60
2019-04-05T02:05:29.443Z,77.60
2019-04-05T02:07:58.883Z,78.50
2019-04-05T02:10:28.906Z,77.40
2019-04-05T02:12:58.391Z,77.70
2019-04-05T02:15:29.168Z,77.80
2019-04-05T02:17:58.798Z,77.80
2019-04-05T02:20:28.560Z,78.00
2019-04-05T02:22:58.393Z,77.80
2019-04-05T02:25:27.841Z,77.80
2019-04-05T02:27:57.473Z,78.10
2019-04-05T02:30:27.724Z,78.20
2019-04-05T02:32:57.146Z,78.10
2019-04-05T02:35:26.826Z,78.40
2019-04-05T02:37:56.267Z,78.10
2019-04-05T02:40:27.105Z,78.40
2019-04-05T02:42:58.612Z,78.50
2019-04-05T02:45:31.664Z,78.50
2019-04-05T02:48:04.365Z,78.60
2019-04-05T02:50:36.329Z,78.70
2019-04-05T02:53:07.919Z,78.60
2019-04-05T02:55:40.057Z,78.50
2019-04-05T02:58:11.062Z,78.70
2019-04-05T03:00:40.996Z,78.80
2019-04-05T03:03:12.535Z,78.90
2019-04-05T03:05:42.187Z,79.20
2019-04-05T03:08:12.060Z,79.30
2019-04-05T03:11:28.796Z,79.30
2019-04-05T03:14:00.694Z,79.20
2019-04-05T03:16:40.820Z,79.50
2019-04-05T03:19:12.328Z,79.50
2019-04-05T03:21:44.853Z,80.30
2019-04-05T03:24:18.649Z,79.60
2019-04-05T03:26:53.815Z,79.40
2019-04-05T03:29:23.788Z,79.60
2019-04-05T03:31:53.852Z,79.80
2019-04-05T03:34:23.753Z,79.70
2019-04-05T03:36:53.989Z,79.90
2019-04-05T03:39:25.159Z,79.90
2019-04-05T03:41:55.614Z,80.20
2019-04-05T03:44:25.040Z,80.20
2019-04-05T03:46:57.671Z,80.20
2019-04-05T03:49:26.668Z,80.10
2019-04-05T03:51:56.143Z,80.20
2019-04-05T03:54:25.771Z,80.40
2019-04-05T03:56:55.347Z,80.30
2019-04-05T03:59:24.815Z,80.50
2019-04-05T04:01:54.243Z,80.50
2019-04-05T04:04:23.960Z,80.70
2019-04-05T04:06:53.989Z,80.70
2019-04-05T04:09:23.756Z,81.60
2019-04-05T04:11:53.882Z,80.80
2019-04-05T04:14:23.851Z,81.00
2019-04-05T04:17:11.097Z,81.00
2019-04-05T04:19:26.135Z,81.00
2019-04-05T04:22:35.397Z,81.30
2019-04-05T04:25:05.026Z,81.50
2019-04-05T04:27:35.061Z,81.50
2019-04-05T04:30:04.823Z,81.70
2019-04-05T04:32:34.489Z,81.60
2019-04-05T04:35:04.104Z,81.70
2019-04-05T04:37:33.971Z,81.80
2019-04-05T04:40:04.005Z,81.80
2019-04-05T04:42:33.792Z,82.10
2019-04-05T04:45:12.145Z,82.10
2019-04-05T04:47:34.757Z,82.10
2019-04-05T04:50:04.658Z,82.20
2019-04-05T04:52:34.584Z,82.50
2019-04-05T04:55:04.052Z,83.60
2019-04-05T04:57:33.481Z,82.90
2019-04-05T05:00:03.212Z,83.60
2019-04-05T05:02:33.017Z,84.40
2019-04-05T05:05:02.902Z,84.40
2019-04-05T05:07:32.360Z,83.60
2019-04-05T05:10:03.430Z,84.40
2019-04-05T05:12:33.040Z,85.10
2019-04-05T05:15:02.717Z,85.10
2019-04-05T05:17:38.263Z,85.40
2019-04-05T05:20:03.813Z,85.60
2019-04-05T05:22:33.847Z,86.90
2019-04-05T05:25:04.030Z,85.90
2019-04-05T05:27:33.510Z,85.80
2019-04-05T05:30:03.345Z,86.40
2019-04-05T05:32:33.077Z,86.50
2019-04-05T05:35:02.754Z,87.00
2019-04-05T05:37:33.051Z,87.20
2019-04-05T05:40:02.541Z,87.20
2019-04-05T05:42:32.066Z,87.20
2019-04-05T05:45:01.550Z,87.60
2019-04-05T05:47:31.242Z,87.90
2019-04-05T05:50:00.669Z,88.00
2019-04-05T05:52:30.351Z,88.50
2019-04-05T05:55:11.959Z,88.50
2019-04-05T05:57:41.127Z,90.70
2019-04-05T06:00:12.487Z,92.60
2019-04-05T06:02:42.038Z,92.90
2019-04-05T06:05:11.931Z,92.60
2019-04-05T06:07:41.360Z,92.30
2019-04-05T06:10:10.836Z,92.20
2019-04-05T06:12:40.305Z,92.10
2019-04-05T06:15:10.263Z,92.30
2019-04-05T06:17:39.693Z,92.20
2019-04-05T06:20:09.921Z,92.20
2019-04-05T06:22:39.360Z,92.20
2019-04-05T06:25:09.007Z,92.30
2019-04-05T06:27:38.482Z,92.30
2019-04-05T06:30:08.846Z,92.50
2019-04-05T06:32:38.261Z,92.60
2019-04-05T06:35:07.895Z,92.80
2019-04-05T06:37:37.319Z,92.80
2019-04-05T06:40:07.262Z,93.20
2019-04-05T06:42:37.012Z,96.90
2019-04-05T06:45:06.958Z,95.40
2019-04-05T06:47:36.344Z,94.80
2019-04-05T06:50:07.053Z,94.30
2019-04-05T06:52:36.495Z,94.00
2019-04-05T06:55:06.368Z,93.90
2019-04-05T06:57:35.800Z,93.90
2019-04-05T07:00:05.936Z,93.70
2019-04-05T07:02:35.561Z,93.40
2019-04-05T07:05:05.753Z,93.40
2019-04-05T07:07:35.246Z,92.90
2019-04-05T07:10:04.885Z,92.40
2019-04-05T07:12:34.408Z,92.40
2019-04-05T07:15:04.059Z,92.30
2019-04-05T07:17:33.602Z,92.40
2019-04-05T07:20:03.071Z,91.90
2019-04-05T07:22:38.932Z,91.80
2019-04-05T07:25:03.665Z,91.60
2019-04-05T07:27:33.133Z,91.10
2019-04-05T07:30:02.730Z,91.30
2019-04-05T07:32:32.199Z,91.00
2019-04-05T07:35:01.707Z,90.90
2019-04-05T07:37:31.159Z,90.80
2019-04-05T07:40:00.791Z,90.80
2019-04-05T07:42:30.269Z,90.60
2019-04-05T07:44:59.693Z,90.70
2019-04-05T07:47:29.152Z,90.60
2019-04-05T07:49:58.619Z,90.40
2019-04-05T07:52:28.339Z,90.10
2019-04-05T07:54:59.593Z,90.10
2019-04-05T07:57:29.092Z,90.10
2019-04-05T07:59:58.592Z,90.30
2019-04-05T08:02:28.096Z,90.60
2019-04-05T08:04:57.566Z,90.40
2019-04-05T08:07:31.602Z,90.10
2019-04-05T08:10:03.037Z,89.90
2019-04-05T08:12:32.476Z,90.30
2019-04-05T08:15:02.096Z,90.40
2019-04-05T08:17:31.544Z,90.60
2019-04-05T08:20:00.989Z,90.60
2019-04-05T08:22:32.334Z,90.10
2019-04-05T08:25:03.006Z,90.10
2019-04-05T08:27:32.498Z,89.80
2019-04-05T08:30:01.943Z,89.40
2019-04-05T08:32:32.109Z,89.70
2019-04-05T08:35:01.529Z,89.00
2019-04-05T08:37:30.990Z,89.20
2019-04-05T08:40:00.419Z,89.20
2019-04-05T08:42:29.874Z,88.60
2019-04-05T08:44:59.317Z,88.10
2019-04-05T08:47:28.795Z,88.80
2019-04-05T08:49:58.245Z,88.70
2019-04-05T08:52:27.831Z,89.20
2019-04-05T08:54:57.501Z,89.50
2019-04-05T08:57:26.980Z,90.00
2019-04-05T08:59:56.423Z,89.50
2019-04-05T09:02:25.889Z,89.60
2019-04-05T09:04:55.357Z,89.40
2019-04-05T09:07:24.812Z,89.60
2019-04-05T09:09:54.462Z,89.40
2019-04-05T09:12:24.072Z,88.90
2019-04-05T09:14:53.628Z,88.90
2019-04-05T09:17:23.093Z,89.30
2019-04-05T09:19:53.972Z,88.30
2019-04-05T09:22:23.762Z,86.70
2019-04-05T09:24:53.218Z,87.10
2019-04-05T09:27:22.656Z,86.80
2019-04-05T09:29:52.114Z,88.90
2019-04-05T09:32:21.557Z,87.40
2019-04-05T09:34:52.007Z,88.40
2019-04-05T09:37:21.424Z,87.40
2019-04-05T09:39:50.880Z,87.90
2019-04-05T09:42:20.316Z,88.10
2019-04-05T09:44:49.813Z,88.30
2019-04-05T09:47:19.248Z,88.20
2019-04-05T09:49:48.700Z,88.70
2019-04-05T09:52:18.121Z,91.90
2019-04-05T09:54:47.582Z,91.00
2019-04-05T09:57:17.032Z,90.40
2019-04-05T09:59:46.486Z,89.60
2019-04-05T10:02:15.936Z,92.00
2019-04-05T10:04:45.409Z,91.10
2019-04-05T10:07:14.825Z,90.70
2019-04-05T10:09:44.277Z,92.10
2019-04-05T10:12:13.701Z,92.00
2019-04-05T10:14:43.159Z,91.10
2019-04-05T10:17:12.575Z,90.90
2019-04-05T10:19:49.883Z,91.70
2019-04-05T10:22:13.148Z,92.20
2019-04-05T10:24:42.584Z,89.50
2019-04-05T10:27:12.041Z,91.90
2019-04-05T10:29:41.484Z,91.60
2019-04-05T10:32:10.910Z,91.30
2019-04-05T10:34:40.375Z,91.20
2019-04-05T10:37:09.797Z,91.00
2019-04-05T10:39:39.252Z,90.80
2019-04-05T10:42:17.742Z,90.80
2019-04-05T10:44:47.200Z,91.20
2019-04-05T10:47:16.630Z,90.80
2019-04-05T10:49:46.074Z,92.30
2019-04-05T10:52:15.493Z,91.40
2019-04-05T10:54:44.947Z,91.20
2019-04-05T10:57:14.359Z,91.00
2019-04-05T10:59:43.897Z,91.00
2019-04-05T11:02:13.330Z,91.10
2019-04-05T11:04:42.821Z,91.40
2019-04-05T11:07:12.225Z,91.50
2019-04-05T11:09:41.674Z,91.30
2019-04-05T11:12:11.097Z,92.00
2019-04-05T11:14:40.561Z,91.80
2019-04-05T11:17:10.052Z,91.70
2019-04-05T11:19:39.501Z,91.20
2019-04-05T11:22:08.936Z,92.00
2019-04-05T11:24:38.369Z,91.30
2019-04-05T11:27:07.829Z,88.60
2019-04-05T11:29:38.576Z,88.80
2019-04-05T11:32:08.059Z,84.80
2019-04-05T11:34:37.473Z,82.90
2019-04-05T11:37:07.020Z,81.70
2019-04-05T11:39:37.340Z,80.70
2019-04-05T11:42:06.812Z,80.80
2019-04-05T11:44:38.239Z,79.80
2019-04-05T11:47:07.688Z,79.30
2019-04-05T11:49:40.808Z,80.50
2019-04-05T11:52:10.252Z,79.20
2019-04-05T11:54:39.697Z,76.80
2019-04-05T11:57:09.344Z,77.90
2019-04-05T11:59:39.176Z,77.50
2019-04-05T12:02:25.523Z,77.00
2019-04-05T12:04:57.420Z,78.00
2019-04-05T12:07:27.483Z,75.70
2019-04-05T12:09:57.285Z,81.30
2019-04-05T12:12:26.953Z,79.10
2019-04-05T12:14:56.510Z,80.90
2019-04-05T12:17:26.070Z,81.80
2019-04-05T12:19:55.804Z,79.60
2019-04-05T12:22:25.295Z,80.00
2019-04-05T12:24:54.992Z,72.80
2019-04-05T12:27:24.482Z,76.90
2019-04-05T12:29:53.918Z,82.50
2019-04-05T12:32:33.359Z,78.40
2019-04-05T12:34:58.409Z,83.30
2019-04-05T12:37:27.919Z,77.30
2019-04-05T12:39:57.338Z,74.70
2019-04-05T12:42:26.826Z,78.30
2019-04-05T12:44:56.589Z,77.00
2019-04-05T12:47:26.068Z,73.70
2019-04-05T12:49:55.835Z,81.60
2019-04-05T12:52:27.518Z,81.60
2019-04-05T12:54:56.661Z,76.90
2019-04-05T12:57:27.795Z,75.80
2019-04-05T12:59:57.224Z,77.10
2019-04-05T13:02:33.311Z,76.70
2019-04-05T13:04:57.885Z,75.80
2019-04-05T13:07:27.340Z,77.10
2019-04-05T13:09:56.855Z,78.10
2019-04-05T13:12:27.057Z,80.50
2019-04-05T13:15:10.919Z,77.70
2019-04-05T13:17:31.047Z,76.00
2019-04-05T13:20:00.899Z,78.00
2019-04-05T13:22:32.956Z,77.90
2019-04-05T13:25:01.905Z,75.70
2019-04-05T13:27:31.359Z,78.60
2019-04-05T13:30:00.786Z,76.80
2019-04-05T13:32:30.240Z,77.20
2019-04-05T13:34:59.664Z,78.70
2019-04-05T13:37:30.761Z,76.40
2019-04-05T13:40:00.610Z,78.50
2019-04-05T13:42:31.954Z,83.80
2019-04-05T13:45:01.217Z,77.80
2019-04-05T13:47:33.040Z,75.90
2019-04-05T13:50:03.178Z,77.70
2019-04-05T13:52:34.234Z,82.40
2019-04-05T13:55:03.902Z,86.30
2019-04-05T13:57:33.348Z,79.60
2019-04-05T14:00:02.923Z,77.60
2019-04-05T14:02:32.631Z,77.70
2019-04-05T14:05:02.121Z,78.70
2019-04-05T14:07:34.135Z,78.30
2019-04-05T14:10:02.671Z,82.00
2019-04-05T14:12:32.252Z,84.60
2019-04-05T14:15:01.989Z,84.00
2019-04-05T14:17:31.629Z,86.00
2019-04-05T14:20:01.383Z,80.60
2019-04-05T14:22:31.450Z,84.00
2019-04-05T14:25:01.134Z,86.70
2019-04-05T14:27:34.830Z,84.60
2019-04-05T14:30:03.100Z,82.40
2019-04-05T14:32:32.613Z,86.10
2019-04-05T14:35:02.990Z,82.20
2019-04-05T14:37:32.729Z,76.90
2019-04-05T14:40:02.238Z,74.40
2019-04-05T14:42:31.849Z,81.30
2019-04-05T14:45:03.540Z,83.10
2019-04-05T14:47:33.010Z,78.70
2019-04-05T14:50:02.700Z,79.70
2019-04-05T14:52:32.568Z,80.30
2019-04-05T14:55:02.217Z,79.30
2019-04-05T14:57:32.587Z,78.10
2019-04-05T15:00:03.990Z,81.60
2019-04-05T15:02:33.737Z,82.30
2019-04-05T15:05:03.310Z,79.10
2019-04-05T15:07:32.742Z,75.00
2019-04-05T15:10:03.677Z,84.60
2019-04-05T15:12:34.582Z,82.70
2019-04-05T15:15:04.483Z,86.20
2019-04-05T15:17:46.868Z,86.00
2019-04-05T15:20:06.266Z,82.30
2019-04-05T15:22:35.705Z,84.20
2019-04-05T15:25:06.294Z,85.70
2019-04-05T15:27:36.812Z,84.30
2019-04-05T15:30:08.245Z,83.60
2019-04-05T15:32:38.329Z,78.70
2019-04-05T15:35:08.522Z,83.40
2019-04-05T15:37:38.076Z,87.30
2019-04-05T15:40:08.215Z,82.40
2019-04-05T15:42:37.637Z,81.10
2019-04-05T15:45:08.996Z,81.40
2019-04-05T15:47:39.008Z,79.90
2019-04-05T15:50:08.905Z,82.90
2019-04-05T15:52:38.370Z,78.70
2019-04-05T15:55:08.267Z,79.30
2019-04-05T15:57:39.465Z,79.60
2019-04-05T16:00:11.921Z,84.50
2019-04-05T16:02:42.971Z,80.80
2019-04-05T16:05:13.416Z,82.60
2019-04-05T16:07:42.829Z,82.60
2019-04-05T16:10:12.522Z,80.00
2019-04-05T16:12:42.565Z,87.20
2019-04-05T16:15:12.114Z,84.40
2019-04-05T16:17:41.561Z,85.50
2019-04-05T16:20:11.564Z,85.20
2019-04-05T16:22:40.965Z,86.00
2019-04-05T16:25:10.598Z,91.50
2019-04-05T16:27:41.623Z,88.70
2019-04-05T16:30:11.334Z,87.90
2019-04-05T16:32:40.786Z,89.50
2019-04-05T16:35:10.269Z,89.50
2019-04-05T16:37:39.724Z,89.70
2019-04-05T16:40:10.017Z,89.80
2019-04-05T16:42:39.473Z,86.60
2019-04-05T16:45:09.819Z,85.40
2019-04-05T16:47:39.314Z,82.20
2019-04-05T16:50:09.678Z,85.70
2019-04-05T16:52:45.177Z,86.70
2019-04-05T16:55:10.946Z,88.80
2019-04-05T16:57:40.567Z,89.40
2019-04-05T17:00:11.313Z,89.90
2019-04-05T17:02:42.398Z,86.30
2019-04-05T17:05:12.462Z,85.70
2019-04-05T17:07:41.966Z,83.80
2019-04-05T17:10:11.847Z,85.00
2019-04-05T17:12:41.297Z,84.30
2019-04-05T17:15:10.944Z,83.00
2019-04-05T17:17:41.629Z,82.70
2019-04-05T17:20:11.758Z,83.50
2019-04-05T17:22:41.339Z,82.90
2019-04-05T17:25:11.815Z,81.70
2019-04-05T17:27:41.269Z,82.30
2019-04-05T17:30:11.645Z,82.80
2019-04-05T17:32:41.234Z,82.00
2019-04-05T17:35:11.164Z,81.80
2019-04-05T17:37:40.835Z,81.70
2019-04-05T17:40:10.587Z,82.50
2019-04-05T17:42:40.056Z,81.80
2019-04-05T17:45:09.743Z,82.80
2019-04-05T17:47:39.493Z,81.70
2019-04-05T17:50:10.783Z,81.80
2019-04-05T17:52:40.809Z,81.90
2019-04-05T17:55:10.357Z,82.00
2019-04-05T17:57:40.003Z,81.90
2019-04-05T18:00:13.404Z,82.00
2019-04-05T18:02:43.141Z,82.00
2019-04-05T18:05:12.944Z,82.10
2019-04-05T18:07:42.682Z,82.10
2019-04-05T18:10:12.410Z,82.00
2019-04-05T18:12:42.165Z,81.90
2019-04-05T18:15:11.936Z,82.00
2019-04-05T18:17:41.371Z,82.10
2019-04-05T18:20:11.013Z,82.10
2019-04-05T18:22:40.648Z,82.00
2019-04-05T18:25:10.400Z,81.90
2019-04-05T18:27:41.264Z,81.60
2019-04-05T18:30:12.157Z,82.30
2019-04-05T18:32:41.651Z,82.30
2019-04-05T18:35:11.206Z,82.20
2019-04-05T18:37:40.937Z,82.20
2019-04-05T18:40:10.684Z,82.10
2019-04-05T18:42:40.113Z,82.10
2019-04-05T18:45:09.877Z,82.00
2019-04-05T18:47:40.866Z,81.50
2019-04-05T18:50:10.823Z,82.40
2019-04-05T18:52:40.254Z,82.30
2019-04-05T18:55:09.920Z,82.40
2019-04-05T18:57:39.630Z,82.50
2019-04-05T19:00:09.385Z,82.30
2019-04-05T19:02:38.918Z,82.60
2019-04-05T19:05:08.633Z,82.60
2019-04-05T19:07:38.237Z,82.70
2019-04-05T19:10:07.700Z,82.70
2019-04-05T19:12:37.204Z,83.50
2019-04-05T19:15:07.104Z,82.80
2019-04-05T19:17:36.729Z,82.70
2019-04-05T19:20:06.988Z,82.40
2019-04-05T19:22:36.437Z,82.00
2019-04-05T19:25:06.901Z,82.10
2019-04-05T19:27:36.547Z,82.10
2019-04-05T19:50:16.444Z,82.90
2019-04-05T19:52:45.880Z,82.80
2019-04-05T19:55:15.344Z,82.80
2019-04-05T19:57:44.919Z,82.70
2019-04-05T20:00:15.360Z,82.80
2019-04-05T20:02:46.275Z,83.00
2019-04-05T20:05:16.031Z,83.30
2019-04-05T20:07:45.459Z,83.30
2019-04-05T20:10:15.108Z,83.30
2019-04-05T20:12:44.531Z,83.00
2019-04-05T20:15:14.467Z,83.10
2019-04-05T20:17:43.881Z,83.30
2019-04-05T20:20:13.684Z,83.50
2019-04-05T20:22:43.111Z,83.70
2019-04-05T20:25:12.569Z,84.00
2019-04-05T20:27:42.024Z,83.90
2019-04-05T20:30:12.470Z,83.80
2019-04-05T20:32:41.950Z,83.70
2019-04-05T20:35:11.522Z,83.50
2019-04-05T20:37:40.959Z,83.70
2019-04-05T20:40:10.581Z,83.90
2019-04-05T20:42:40.058Z,83.80
2019-04-05T20:45:09.742Z,83.70
2019-04-05T20:47:39.219Z,83.60
2019-04-05T20:50:08.829Z,83.60
2019-04-05T20:52:38.299Z,83.50
2019-04-05T20:55:09.040Z,83.20
2019-04-05T20:57:39.967Z,83.20
2019-04-05T21:00:13.087Z,83.50
2019-04-05T21:02:42.543Z,83.80
2019-04-05T21:05:12.012Z,83.90
2019-04-05T21:07:41.576Z,83.70
2019-04-05T21:10:11.233Z,84.00
2019-04-05T21:12:40.774Z,84.10
2019-04-05T21:15:10.486Z,84.30
2019-04-05T21:17:39.919Z,84.40
2019-04-05T21:20:09.329Z,84.70
2019-04-05T21:22:38.800Z,84.90
2019-04-05T21:25:08.237Z,85.40
2019-04-05T21:27:37.672Z,85.70
2019-04-05T21:30:08.180Z,85.80
2019-04-05T21:32:37.633Z,85.80
2019-04-05T21:35:07.382Z,85.90
2019-04-05T21:37:36.842Z,86.40
2019-04-05T21:40:06.460Z,86.40
2019-04-05T21:42:35.927Z,87.30
2019-04-05T21:45:05.848Z,86.80
2019-04-05T21:47:35.286Z,86.80
2019-04-05T21:50:05.302Z,87.00
2019-04-05T21:52:34.754Z,87.40
2019-04-05T21:55:04.523Z,87.80
2019-04-05T21:57:33.986Z,87.40
2019-04-05T22:00:05.413Z,87.50
2019-04-05T22:02:34.897Z,87.50
2019-04-05T22:05:05.003Z,87.70
2019-04-05T22:07:34.487Z,88.10
2019-04-05T22:10:04.232Z,88.40
2019-04-05T22:12:33.716Z,88.20
2019-04-05T22:15:03.150Z,88.40
2019-04-05T22:17:32.637Z,88.60
2019-04-05T22:22:31.575Z,88.50
2019-04-05T22:25:00.993Z,88.90
2019-04-05T22:27:30.520Z,89.10
2019-04-05T22:29:59.972Z,89.50
2019-04-05T22:32:29.444Z,89.50
2019-04-05T22:34:58.940Z,89.80
2019-04-05T22:37:28.399Z,90.00
2019-04-05T22:39:57.851Z,90.10
2019-04-05T22:42:27.312Z,90.30
2019-04-05T22:44:56.746Z,90.30
2019-04-05T22:47:26.175Z,90.50
2019-04-05T22:49:55.616Z,90.70
2019-04-05T22:52:25.077Z,90.70
2019-04-05T22:54:54.533Z,90.70
2019-04-05T22:57:23.969Z,90.70
2019-04-05T22:59:53.419Z,90.80
2019-04-05T23:02:22.842Z,90.70
2019-04-05T23:04:52.382Z,90.90
2019-04-05T23:07:21.932Z,90.80
2019-04-05T23:09:51.450Z,90.90
2019-04-05T23:12:20.850Z,91.00
2019-04-05T23:14:50.312Z,91.10
2019-04-05T23:17:19.761Z,91.20
2019-04-05T23:19:49.318Z,91.20
2019-04-05T23:22:18.778Z,91.30
2019-04-05T23:24:48.214Z,91.40
2019-04-05T23:27:17.641Z,91.50
2019-04-05T23:29:47.120Z,91.60
2019-04-05T23:32:16.548Z,91.60
2019-04-05T23:34:45.990Z,91.60
2019-04-05T23:37:15.410Z,91.70
2019-04-05T23:39:44.896Z,91.80
2019-04-05T23:42:16.122Z,91.90
2019-04-05T23:44:45.586Z,92.00
2019-04-05T23:47:16.898Z,92.10
2019-04-05T23:49:46.507Z,92.00
2019-04-05T23:52:15.965Z,92.00
2019-04-05T23:54:45.416Z,92.10
2019-04-05T23:57:14.845Z,92.10
2019-04-05T23:59:44.317Z,92.20
